^^
Saratoga-Weather Station Historical Data
Daily Summary for April 17, 2020 Units:  English    Metric   Both
Daily Weekly Monthly Yearly Custom
  High: Low: Average:
Temperature: 48.9 °F 47.5 °F 48 °F
Dew Point: 46.4 °F 45 °F 45.7 °F
Humidity: 92% 91% 91%
Wind Speed: 6.9mph 0mph 1.2mph
Wind Gust: 11mph - -
Wind- - WSW
Pressure: 30.3 in 30.3 in -
Precipitation: 0 in    
Historical Graphs
 
 
Tabular Data for April 17, 2020
Time Temperature Dew Point Pressure Wind Wind Speed Wind Gust Humidity Rainfall Rate (Hourly) solar
00:04 48 °F 45.9 °F 30.3 in West 0.9 mph 2 mph 92% 0 in 0 W/m2
00:09 48 °F 45.9 °F 30.3 in West 0.9 mph 4 mph 92% 0 in 0 W/m2
00:14 48 °F 45.9 °F 30.3 in WNW 0.9 mph 3 mph 92% 0 in 0 W/m2
00:19 48 °F 45.9 °F 30.3 in WNW 2.9 mph 4 mph 92% 0 in 0 W/m2
00:24 48.2 °F 46 °F 30.3 in WNW 2.9 mph 3 mph 92% 0 in 0 W/m2
00:29 48.2 °F 46 °F 30.3 in WNW 0.9 mph 3 mph 92% 0 in 0 W/m2
00:34 48.4 °F 46.2 °F 30.3 in Calm   4 mph 92% 0 in 0 W/m2
00:39 48.4 °F 46.2 °F 30.3 in WNW 6.9 mph 8 mph 92% 0 in 0 W/m2
00:44 48.4 °F 46.2 °F 30.3 in WSW 4.9 mph 6 mph 92% 0 in 0 W/m2
00:49 48.4 °F 46.2 °F 30.3 in West 2 mph 2 mph 92% 0 in 0 W/m2
00:54 48.4 °F 46.2 °F 30.3 in West 2 mph 2 mph 92% 0 in 0 W/m2
00:59 48.6 °F 46.4 °F 30.3 in Calm   2 mph 92% 0 in 0 W/m2
01:04 48.6 °F 46.4 °F 30.3 in NW 0.9 mph 2 mph 92% 0 in 0 W/m2
01:09 48.6 °F 46.4 °F 30.3 in Calm   3 mph 92% 0 in 0 W/m2
01:14 48.6 °F 46.4 °F 30.3 in WNW 2.9 mph 4 mph 92% 0 in 0 W/m2
01:19 48.6 °F 46.4 °F 30.3 in Calm   2 mph 92% 0 in 0 W/m2
01:24 48.6 °F 46.4 °F 30.3 in North 0.9 mph 2 mph 92% 0 in 0 W/m2
01:29 48.6 °F 46.4 °F 30.3 in West 2 mph 6 mph 92% 0 in 0 W/m2
01:34 48.6 °F 46 °F 30.3 in NNW 0.9 mph 3 mph 91% 0 in 0 W/m2
01:39 48.6 °F 46 °F 30.3 in WSW 2 mph 3 mph 91% 0 in 0 W/m2
01:44 48.6 °F 46 °F 30.3 in NNE 2.9 mph 4 mph 91% 0 in 0 W/m2
01:49 48.6 °F 46 °F 30.3 in West 0.9 mph 2 mph 91% 0 in 0 W/m2
01:54 48.6 °F 46 °F 30.3 in West 0.9 mph 6 mph 91% 0 in 0 W/m2
01:59 48.6 °F 46 °F 30.3 in Calm   2 mph 91% 0 in 0 W/m2
02:04 48.6 °F 46 °F 30.3 in SE 0.9 mph 5 mph 91% 0 in 0 W/m2
02:09 48.6 °F 46 °F 30.3 in Calm   2 mph 91% 0 in 0 W/m2
02:14 48.6 °F 46 °F 30.3 in East 0.9 mph 3 mph 91% 0 in 0 W/m2
02:19 48.6 °F 46 °F 30.3 in Calm   3 mph 91% 0 in 0 W/m2
02:24 48.6 °F 46 °F 30.3 in South 0.9 mph 5 mph 91% 0 in 0 W/m2
02:29 48.6 °F 46 °F 30.3 in NW 2 mph 2 mph 91% 0 in 0 W/m2
02:34 48.6 °F 46 °F 30.3 in WNW 0.9 mph 2 mph 91% 0 in 0 W/m2
02:39 48.6 °F 46 °F 30.3 in WSW 2.9 mph 6 mph 91% 0 in 0 W/m2
02:44 48.6 °F 46 °F 30.3 in Calm   1 mph 91% 0 in 0 W/m2
02:49 48.6 °F 46 °F 30.3 in NE 0.9 mph 6 mph 91% 0 in 0 W/m2
02:54 48.4 °F 45.9 °F 30.3 in NNW 0.9 mph 3 mph 91% 0 in 0 W/m2
02:59 48.4 °F 45.9 °F 30.3 in West 0.9 mph 6 mph 91% 0 in 0 W/m2
03:04 48.4 °F 45.9 °F 30.3 in Calm   2 mph 91% 0 in 0 W/m2
03:09 48.2 °F 45.7 °F 30.3 in NW 0.9 mph 2 mph 91% 0 in 0 W/m2
03:14 48 °F 45.5 °F 30.3 in WNW 0.9 mph 1 mph 91% 0 in 0 W/m2
03:19 48 °F 45.5 °F 30.3 in Calm   1 mph 91% 0 in 0 W/m2
03:24 47.8 °F 45.3 °F 30.3 in Calm   4 mph 91% 0 in 0 W/m2
03:29 47.8 °F 45.7 °F 30.3 in ESE 2 mph 2 mph 92% 0 in 0 W/m2
03:34 47.8 °F 45.7 °F 30.3 in NNE 0.9 mph 3 mph 92% 0 in 0 W/m2
03:39 47.8 °F 45.7 °F 30.3 in Calm   3 mph 92% 0 in 0 W/m2
03:44 47.8 °F 45.7 °F 30.3 in Calm   1 mph 92% 0 in 0 W/m2
03:49 47.7 °F 45.5 °F 30.3 in ENE 2 mph 3 mph 92% 0 in 0 W/m2
03:54 47.7 °F 45.5 °F 30.3 in Calm     92% 0 in 0 W/m2
03:59 47.7 °F 45.5 °F 30.3 in WSW 2.9 mph 6 mph 92% 0 in 0 W/m2
04:04 47.7 °F 45.5 °F 30.3 in Calm   2 mph 92% 0 in 0 W/m2
04:09 47.7 °F 45.5 °F 30.3 in NNW 0.9 mph 6 mph 92% 0 in 0 W/m2
04:14 47.7 °F 45.5 °F 30.3 in WSW 2 mph 2 mph 92% 0 in 0 W/m2
04:19 47.7 °F 45.5 °F 30.3 in North 2 mph 4 mph 92% 0 in 0 W/m2
04:24 47.7 °F 45.5 °F 30.3 in SW 2 mph 3 mph 92% 0 in 0 W/m2
04:29 47.7 °F 45.5 °F 30.3 in NW 2 mph 4 mph 92% 0 in 0 W/m2
04:34 47.8 °F 45.7 °F 30.3 in Calm   2 mph 92% 0 in 0 W/m2
04:39 47.8 °F 45.7 °F 30.3 in Calm   2 mph 92% 0 in 0 W/m2
04:44 47.8 °F 45.3 °F 30.3 in WNW 2 mph 2 mph 91% 0 in 0 W/m2
04:49 47.8 °F 45.3 °F 30.3 in Calm   2 mph 91% 0 in 0 W/m2
04:54 47.8 °F 45.3 °F 30.3 in SSW 0.9 mph 3 mph 91% 0 in 0 W/m2
04:59 47.8 °F 45.3 °F 30.3 in SSE 0.9 mph 1 mph 91% 0 in 0 W/m2
05:04 47.8 °F 45.3 °F 30.3 in Calm   1 mph 91% 0 in 0 W/m2
05:09 47.8 °F 45.3 °F 30.3 in Calm   2 mph 91% 0 in 0 W/m2
05:14 47.8 °F 45.3 °F 30.3 in Calm   1 mph 91% 0 in 0 W/m2
05:19 47.8 °F 45.3 °F 30.3 in WNW 4 mph 4 mph 91% 0 in 0 W/m2
05:24 47.7 °F 45.1 °F 30.3 in WSW 2 mph 2 mph 91% 0 in 0 W/m2
05:29 47.7 °F 45.1 °F 30.3 in WSW 2 mph 4 mph 91% 0 in 0 W/m2
05:34 47.7 °F 45.1 °F 30.3 in Calm   6 mph 91% 0 in 0 W/m2
05:39 47.7 °F 45.1 °F 30.3 in WNW 0.9 mph 3 mph 91% 0 in 0 W/m2
05:44 47.7 °F 45.1 °F 30.3 in NW 0.9 mph 3 mph 91% 0 in 0 W/m2
05:49 47.7 °F 45.1 °F 30.3 in ESE 2 mph 3 mph 91% 0 in 0 W/m2
05:54 47.7 °F 45.1 °F 30.3 in WSW 0.9 mph 3 mph 91% 0 in 0 W/m2
05:59 47.7 °F 45.1 °F 30.3 in Calm   7 mph 91% 0 in 0 W/m2
06:04 47.5 °F 45 °F 30.3 in Calm   6 mph 91% 0 in 0 W/m2
06:09 47.5 °F 45 °F 30.3 in WNW 2.9 mph 3 mph 91% 0 in 0 W/m2
06:14 47.5 °F 45.3 °F 30.3 in Calm   3 mph 92% 0 in 0 W/m2
06:19 47.5 °F 45.3 °F 30.3 in NW 2 mph 3 mph 92% 0 in 0 W/m2
06:24 47.5 °F 45.3 °F 30.3 in ESE 2 mph 4 mph 92% 0 in 0 W/m2
06:29 47.5 °F 45 °F 30.3 in Calm   3 mph 91% 0 in 0 W/m2
06:34 47.5 °F 45 °F 30.3 in Calm   2 mph 91% 0 in 0 W/m2
06:39 47.5 °F 45.3 °F 30.3 in SSE 2 mph 4 mph 92% 0 in 0 W/m2
06:44 47.7 °F 45.5 °F 30.3 in Calm   2 mph 92% 0 in 0 W/m2
06:49 47.7 °F 45.5 °F 30.3 in Calm   2 mph 92% 0 in 0 W/m2
06:54 47.7 °F 45.1 °F 30.3 in West 2 mph 2 mph 91% 0 in 0 W/m2
06:59 47.8 °F 45.3 °F 30.3 in West 0.9 mph 4 mph 91% 0 in 0 W/m2
07:04 47.8 °F 45.3 °F 30.3 in SW 0.9 mph 3 mph 91% 0 in 0 W/m2
07:09 47.8 °F 45.3 °F 30.3 in Calm   4 mph 91% 0 in 0 W/m2
07:14 47.8 °F 45.3 °F 30.3 in SW 2 mph 3 mph 91% 0 in 0 W/m2
07:19 47.8 °F 45.3 °F 30.3 in NE 0.9 mph 2 mph 91% 0 in 0 W/m2
07:24 47.8 °F 45.3 °F 30.3 in West 2.9 mph 3 mph 91% 0 in 0 W/m2
07:29 47.8 °F 45.3 °F 30.3 in NW 2 mph 3 mph 91% 0 in 0 W/m2
07:34 47.8 °F 45.3 °F 30.3 in SSW 2 mph 3 mph 91% 0 in 0 W/m2
07:39 47.8 °F 45.3 °F 30.3 in West 2 mph 11 mph 91% 0 in 0 W/m2
07:44 47.8 °F 45.3 °F 30.3 in SW 2.9 mph 3 mph 91% 0 in 0 W/m2
07:49 47.8 °F 45.3 °F 30.3 in Calm   11 mph 91% 0 in 0 W/m2
07:54 47.8 °F 45.3 °F 30.3 in ENE 2 mph 4 mph 91% 0 in 0 W/m2
07:59 47.8 °F 45.3 °F 30.3 in North 2 mph 4 mph 91% 0 in 5 W/m2
08:04 47.8 °F 45.3 °F 30.3 in Calm   3 mph 91% 0 in 7 W/m2
08:09 48 °F 45.5 °F 30.3 in WNW 0.9 mph 4 mph 91% 0 in 12 W/m2
08:14 48 °F 45.5 °F 30.3 in NW 2.9 mph 5 mph 91% 0 in 16 W/m2
08:19 48 °F 45.9 °F 30.3 in West 2.9 mph 5 mph 92% 0 in 21 W/m2
08:24 48.2 °F 46 °F 30.3 in NW 2.9 mph 4 mph 92% 0 in 21 W/m2
08:29 48.2 °F 45.7 °F 30.3 in NNW 0.9 mph 3 mph 91% 0 in 25 W/m2
08:34 48.4 °F 45.9 °F 30.3 in East 0.9 mph 2 mph 91% 0 in 30 W/m2
08:39 48.4 °F 45.9 °F 30.3 in Calm   2 mph 91% 0 in 35 W/m2
08:44 48.4 °F 45.9 °F 30.3 in East 0.9 mph 4 mph 91% 0 in 39 W/m2
08:49 48.6 °F 46 °F 30.3 in East 0.9 mph 4 mph 91% 0 in 35 W/m2
08:54 48.6 °F 46 °F 30.3 in WNW 2.9 mph 4 mph 91% 0 in 44 W/m2
08:59 48.6 °F 46 °F 30.3 in NW 0.9 mph 4 mph 91% 0 in 46 W/m2
09:04 48.7 °F 46.2 °F 30.3 in WNW 0.9 mph 2 mph 91% 0 in 53 W/m2
09:09 48.7 °F 46.2 °F 30.3 in Calm   3 mph 91% 0 in 56 W/m2
09:14 48.9 °F 46.4 °F 30.3 in West 2 mph 2 mph 91% 0 in 58 W/m2
09:19 48.9 °F 46.4 °F 30.3 in NW 2.9 mph 3 mph 91% 0 in 58 W/m2
09:24 48.9 °F 46.4 °F 30.3 in South 2 mph 3 mph 91% 0 in 65 W/m2
Juneau County Weather
Compliments of Weather Underground - 2 mb